Mableton, Georgia
Current Conditions -  °F | °C
As of 2:53 PM on Sunday 25 Jan 2015 (Local Time) from KFTY Reporting Station
Clear Clear  
Wind Chill: 58°   Ceiling: Unl
Heat Index: 58°   Visibility: 10mi
Dew Point: 30°   Wind: 15mph
Humidity: 35%   Direction: 250°WSW
Pressure: 29.78"   Gusts: 24mph
Location:  33.82°N, 84.58°W
Report Text: KFTY 251953Z 25013G21KT 10SM CLR 14/M01 A2978 RMK AO2 SLP084 T01441011
Loading
Personal Weather Stations






























Interactive Weather Map New forecast layout! Learn more

10-Day Weather Forecast

Advertisements
Track Severe Weather on mobile